createdAt,value
2018-05-15T00:02:49.139Z,11.50
2018-05-15T00:06:51.915Z,13.50
2018-05-15T00:10:54.755Z,12.63
2018-05-15T00:14:58.299Z,14.03
2018-05-15T00:19:01.141Z,14.40
2018-05-15T00:23:03.885Z,14.83
2018-05-15T00:27:06.629Z,13.10
2018-05-15T00:31:09.405Z,12.10
2018-05-15T00:35:12.975Z,13.60
2018-05-15T00:39:16.554Z,12.57
2018-05-15T00:43:19.375Z,12.90
2018-05-15T00:47:22.550Z,10.73
2018-05-15T00:51:25.328Z,11.33
2018-05-15T00:55:39.975Z,13.30
2018-05-15T00:59:42.749Z,11.70
2018-05-15T01:03:46.287Z,14.57
2018-05-15T01:07:49.042Z,15.57
2018-05-15T01:11:51.781Z,13.50
2018-05-15T01:15:54.537Z,14.43
2018-05-15T01:19:57.300Z,14.13
2018-05-15T01:24:00.117Z,15.73
2018-05-15T01:28:02.913Z,15.50
2018-05-15T01:32:05.689Z,18.63
2018-05-15T01:36:08.479Z,16.93
2018-05-15T01:40:18.908Z,13.30
2018-05-15T01:44:21.640Z,14.50
2018-05-15T01:48:28.323Z,15.50
2018-05-15T01:52:31.116Z,17.43
2018-05-15T01:56:34.938Z,17.43
2018-05-15T02:00:37.744Z,15.60
2018-05-15T02:04:41.358Z,13.83
2018-05-15T02:08:44.152Z,17.13
2018-05-15T02:12:52.390Z,15.40
2018-05-15T02:16:55.142Z,12.40
2018-05-15T02:20:58.762Z,15.93
2018-05-15T02:25:02.248Z,12.43
2018-05-15T02:29:05.060Z,15.13
2018-05-15T02:33:07.784Z,15.30
2018-05-15T02:37:10.601Z,17.03
2018-05-15T02:41:13.331Z,16.80
2018-05-15T02:45:16.226Z,12.67
2018-05-15T02:49:19.076Z,12.60
2018-05-15T02:53:21.829Z,12.93
2018-05-15T02:57:24.769Z,14.03
2018-05-15T03:01:28.364Z,13.27
2018-05-15T03:05:31.171Z,12.30
2018-05-15T03:09:34.820Z,13.17
2018-05-15T03:13:37.545Z,20.10
2018-05-15T03:17:40.369Z,15.70
2018-05-15T03:21:43.151Z,13.60
2018-05-15T03:25:46.041Z,14.97
2018-05-15T03:29:48.859Z,22.80
2018-05-15T03:33:51.667Z,18.23
2018-05-15T03:37:54.479Z,15.20
2018-05-15T03:41:58.014Z,16.23
2018-05-15T03:46:00.810Z,19.80
2018-05-15T03:50:03.598Z,14.60
2018-05-15T03:54:07.225Z,13.83
2018-05-15T03:58:09.988Z,13.10
2018-05-15T04:02:24.651Z,10.77
2018-05-15T04:06:39.312Z,12.87
2018-05-15T04:10:42.151Z,10.17
2018-05-15T04:14:52.455Z,9.87
2018-05-15T04:18:56.025Z,11.07
2018-05-15T04:22:58.958Z,10.60
2018-05-15T04:27:01.707Z,10.10
2018-05-15T04:31:05.286Z,9.10
2018-05-15T04:35:08.075Z,7.93
2018-05-15T04:39:11.010Z,8.40
2018-05-15T04:43:13.819Z,7.77
2018-05-15T04:47:17.331Z,8.70
2018-05-15T04:51:20.849Z,8.30
2018-05-15T04:55:28.826Z,7.17
2018-05-15T04:59:31.580Z,6.77
2018-05-15T05:03:34.332Z,5.70
2018-05-15T05:07:37.042Z,5.70
2018-05-15T05:11:40.598Z,4.60
2018-05-15T05:15:43.404Z,6.77
2018-05-15T05:19:49.145Z,4.30
2018-05-15T05:23:54.485Z,4.87
2018-05-15T05:27:58.114Z,2.60
2018-05-15T05:32:00.959Z,5.63
2018-05-15T05:36:03.775Z,3.57
2018-05-15T05:40:06.602Z,3.03
2018-05-15T05:44:14.097Z,2.67
2018-05-15T05:48:17.587Z,2.77
2018-05-15T05:52:20.455Z,2.30
2018-05-15T05:56:23.169Z,2.40
2018-05-15T06:00:26.020Z,3.27
2018-05-15T06:04:30.273Z,3.37
2018-05-15T06:08:34.098Z,3.30
2018-05-15T06:12:37.212Z,2.33
2018-05-15T06:16:40.190Z,3.40
2018-05-15T06:20:45.952Z,3.50
2018-05-15T06:24:52.701Z,3.97
2018-05-15T06:28:55.726Z,7.07
2018-05-15T06:32:59.756Z,3.87
2018-05-15T06:37:03.350Z,4.73
2018-05-15T06:41:06.253Z,5.63
2018-05-15T06:45:08.977Z,4.70
2018-05-15T06:49:12.084Z,4.80
2018-05-15T06:53:15.005Z,5.10
2018-05-15T06:57:17.756Z,7.60
2018-05-15T07:01:21.597Z,5.13
2018-05-15T07:05:24.400Z,4.83
2018-05-15T07:09:27.409Z,4.03
2018-05-15T07:13:30.834Z,4.30
2018-05-15T07:17:33.796Z,4.60
2018-05-15T07:21:37.314Z,4.40
2018-05-15T07:25:40.899Z,7.07
2018-05-15T07:29:43.740Z,5.47
2018-05-15T07:33:46.832Z,6.50
2018-05-15T07:37:50.803Z,5.83
2018-05-15T07:41:56.543Z,6.00
2018-05-15T07:46:00.541Z,6.30
2018-05-15T07:50:03.482Z,5.40
2018-05-15T07:54:07.250Z,9.93
2018-05-15T07:58:10.077Z,5.90
2018-05-15T08:02:13.464Z,5.80
2018-05-15T08:06:16.514Z,6.17
2018-05-15T08:10:19.856Z,5.17
2018-05-15T08:14:22.708Z,4.53
2018-05-15T08:18:26.277Z,5.73
2018-05-15T08:22:29.075Z,4.90
2018-05-15T08:26:33.182Z,4.20
2018-05-15T08:30:37.080Z,3.50
2018-05-15T08:34:40.822Z,4.80
2018-05-15T08:38:44.816Z,4.33
2018-05-15T08:42:47.567Z,3.43
2018-05-15T08:46:52.245Z,3.43
2018-05-15T08:50:55.848Z,4.47
2018-05-15T08:55:02.733Z,3.60
2018-05-15T08:59:07.737Z,3.40
2018-05-15T09:03:11.322Z,4.20
2018-05-15T09:07:14.090Z,4.30
2018-05-15T09:11:16.866Z,4.27
2018-05-15T09:15:19.602Z,3.60
2018-05-15T09:19:23.080Z,3.90
2018-05-15T09:23:25.789Z,3.90
2018-05-15T09:27:28.555Z,3.70
2018-05-15T09:31:31.289Z,5.33
2018-05-15T09:35:34.090Z,4.20
2018-05-15T09:39:36.837Z,4.47
2018-05-15T09:43:54.487Z,4.33
2018-05-15T09:47:57.229Z,4.73
2018-05-15T09:52:00.027Z,3.10
2018-05-15T09:56:03.016Z,3.00
2018-05-15T10:00:06.594Z,3.70
2018-05-15T10:04:09.389Z,4.13
2018-05-15T10:08:12.123Z,4.13
2018-05-15T10:12:14.966Z,3.73
2018-05-15T10:16:17.802Z,2.93
2018-05-15T10:20:20.594Z,5.20
2018-05-15T10:24:23.431Z,3.23
2018-05-15T10:28:26.239Z,2.63
2018-05-15T10:32:28.977Z,2.30
2018-05-15T10:36:31.730Z,6.40
2018-05-15T10:40:34.515Z,2.40
2018-05-15T10:44:40.926Z,1.90
2018-05-15T10:48:43.911Z,2.10
2018-05-15T10:52:46.621Z,5.93
2018-05-15T10:56:49.463Z,2.30
2018-05-15T11:00:52.284Z,2.13
2018-05-15T11:04:55.907Z,1.77
2018-05-15T11:08:59.380Z,2.63
2018-05-15T11:13:02.959Z,2.80
2018-05-15T11:17:05.690Z,2.00
2018-05-15T11:21:20.259Z,2.30
2018-05-15T11:25:22.997Z,1.80
2018-05-15T11:29:25.733Z,4.80
2018-05-15T11:33:28.453Z,1.77
2018-05-15T11:37:31.174Z,3.53
2018-05-15T11:41:34.828Z,2.40
2018-05-15T11:45:37.490Z,2.00
2018-05-15T11:49:41.780Z,2.90
2018-05-15T11:53:43.093Z,3.20
2018-05-15T11:57:46.563Z,2.37
2018-05-15T12:01:49.314Z,2.40
2018-05-15T12:05:52.053Z,2.80
2018-05-15T12:09:56.891Z,2.13
2018-05-15T12:13:59.661Z,4.00
2018-05-15T12:18:02.382Z,2.07
2018-05-15T12:22:06.135Z,2.70
2018-05-15T12:26:08.918Z,2.40
2018-05-15T12:30:11.667Z,3.70
2018-05-15T12:34:15.234Z,2.40
2018-05-15T12:38:17.970Z,1.97
2018-05-15T12:42:20.730Z,1.53
2018-05-15T12:46:23.447Z,1.63
2018-05-15T12:50:26.958Z,2.70
2018-05-15T12:54:30.922Z,2.63
2018-05-15T12:58:33.642Z,1.63
2018-05-15T13:02:38.278Z,1.70
2018-05-15T13:06:41.867Z,1.70
2018-05-15T13:10:44.589Z,1.30
2018-05-15T13:14:47.375Z,1.37
2018-05-15T13:18:50.122Z,1.30
2018-05-15T13:22:53.641Z,1.67
2018-05-15T13:26:57.141Z,1.00
2018-05-15T13:30:59.892Z,1.13
2018-05-15T13:35:03.682Z,1.60
2018-05-15T13:39:06.468Z,1.10
2018-05-15T13:43:09.970Z,1.20
2018-05-15T13:47:12.771Z,0.77
2018-05-15T13:51:15.581Z,1.43
2018-05-15T13:55:19.089Z,0.57
2018-05-15T13:59:22.665Z,1.10
2018-05-15T14:03:26.104Z,1.53
2018-05-15T14:07:29.006Z,0.80
2018-05-15T14:11:34.690Z,0.67
2018-05-15T14:15:41.141Z,0.83
2018-05-15T14:19:44.020Z,1.60
2018-05-15T14:23:46.751Z,1.20
2018-05-15T14:27:50.273Z,0.90
2018-05-15T14:31:53.779Z,1.33
2018-05-15T14:35:57.325Z,1.60
2018-05-15T14:40:00.152Z,0.80
2018-05-15T14:44:02.938Z,0.67
2018-05-15T14:48:05.695Z,0.83
2018-05-15T14:52:09.182Z,0.57
2018-05-15T14:56:11.948Z,0.90
2018-05-15T15:00:14.671Z,0.60
2018-05-15T15:04:17.478Z,0.60
2018-05-15T15:08:22.378Z,0.83
2018-05-15T15:12:25.148Z,0.90
2018-05-15T15:16:28.651Z,0.73
2018-05-15T15:20:32.163Z,0.63
2018-05-15T15:24:38.949Z,0.70
2018-05-15T15:28:41.745Z,0.70
2018-05-15T15:32:44.512Z,0.80
2018-05-15T15:36:51.750Z,0.80
2018-05-15T15:40:58.168Z,1.00
2018-05-15T15:45:07.467Z,0.70
2018-05-15T15:49:13.852Z,1.63
2018-05-15T15:53:16.852Z,2.13
2018-05-15T15:57:20.415Z,2.07
2018-05-15T16:01:23.135Z,0.93
2018-05-15T16:05:25.867Z,1.80
2018-05-15T16:09:29.501Z,1.10
2018-05-15T16:13:32.243Z,0.60
2018-05-15T16:17:35.763Z,0.77
2018-05-15T16:21:38.497Z,1.03
2018-05-15T16:25:41.233Z,0.90
2018-05-15T16:29:44.076Z,0.60
2018-05-15T16:33:47.630Z,0.83
2018-05-15T16:37:50.395Z,0.80
2018-05-15T16:41:53.869Z,0.60
2018-05-15T16:45:57.413Z,0.90
2018-05-15T16:50:00.169Z,0.90
2018-05-15T16:54:02.905Z,1.00
2018-05-15T16:58:05.748Z,0.60
2018-05-15T17:02:08.534Z,0.70
2018-05-15T17:06:11.261Z,2.00
2018-05-15T17:10:17.633Z,0.70
2018-05-15T17:14:20.407Z,0.60
2018-05-15T17:18:23.192Z,0.87
2018-05-15T17:22:25.957Z,1.20
2018-05-15T17:26:28.860Z,1.17
2018-05-15T17:30:32.804Z,1.20
2018-05-15T17:34:36.277Z,1.37
2018-05-15T17:38:43.079Z,2.30
2018-05-15T17:42:45.915Z,1.10
2018-05-15T17:46:48.651Z,1.00
2018-05-15T17:50:52.773Z,1.90
2018-05-15T17:54:55.511Z,1.90
2018-05-15T17:58:58.426Z,1.00
2018-05-15T18:03:01.192Z,2.00
2018-05-15T18:07:03.986Z,1.27
2018-05-15T18:11:06.795Z,1.70
2018-05-15T18:15:09.536Z,2.83
2018-05-15T18:19:12.266Z,2.10
2018-05-15T18:23:15.074Z,1.43
2018-05-15T18:27:17.935Z,4.50
2018-05-15T18:31:22.736Z,3.40
2018-05-15T18:35:25.587Z,1.40
2018-05-15T18:39:29.473Z,1.90
2018-05-15T18:43:33.033Z,1.87
2018-05-15T18:47:35.791Z,1.83
2018-05-15T18:51:39.428Z,3.37
2018-05-15T18:55:42.158Z,2.93
2018-05-15T18:59:45.289Z,2.27
2018-05-15T19:03:48.872Z,1.83
2018-05-15T19:07:51.585Z,2.17
2018-05-15T19:11:54.497Z,2.63
2018-05-15T19:15:58.323Z,4.00
2018-05-15T19:20:01.767Z,3.97
2018-05-15T19:24:04.543Z,3.93
2018-05-15T19:28:08.037Z,2.67
2018-05-15T19:32:16.760Z,2.70
2018-05-15T19:36:19.601Z,2.80
2018-05-15T19:40:22.394Z,3.50
2018-05-15T19:44:25.866Z,3.83
2018-05-15T19:48:28.599Z,6.07
2018-05-15T19:52:39.682Z,4.97
2018-05-15T19:56:43.464Z,4.03
2018-05-15T20:00:46.266Z,5.10
2018-05-15T20:04:49.034Z,7.33
2018-05-15T20:08:51.795Z,10.87
2018-05-15T20:12:55.439Z,8.53
2018-05-15T20:16:58.161Z,9.40
2018-05-15T20:21:00.861Z,8.10
2018-05-15T20:25:03.953Z,6.43
2018-05-15T20:29:06.794Z,8.10
2018-05-15T20:33:09.644Z,6.83
2018-05-15T20:37:12.530Z,6.80
2018-05-15T20:41:15.362Z,5.40
2018-05-15T20:45:22.142Z,6.03
2018-05-15T20:49:25.284Z,8.13
2018-05-15T20:53:28.056Z,6.80
2018-05-15T20:57:31.119Z,6.80
2018-05-15T21:01:33.998Z,7.20
2018-05-15T21:05:38.616Z,7.20
2018-05-15T21:09:41.350Z,6.93
2018-05-15T21:13:44.181Z,9.07
2018-05-15T21:17:47.003Z,10.10
2018-05-15T21:21:49.760Z,12.33
2018-05-15T21:25:52.788Z,9.23
2018-05-15T21:29:55.493Z,10.50
2018-05-15T21:33:58.230Z,10.30
2018-05-15T21:38:01.792Z,11.50
2018-05-15T21:42:05.319Z,11.50
2018-05-15T21:46:08.180Z,13.53
2018-05-15T21:50:10.883Z,13.80
2018-05-15T21:54:13.602Z,8.40
2018-05-15T21:58:17.150Z,13.47
2018-05-15T22:02:19.850Z,9.87
2018-05-15T22:06:23.367Z,8.53
2018-05-15T22:10:26.139Z,8.90
2018-05-15T22:14:40.817Z,6.43
2018-05-15T22:18:55.688Z,9.17
2018-05-15T22:22:57.877Z,9.50
2018-05-15T22:27:01.358Z,7.27
2018-05-15T22:31:04.093Z,7.87
2018-05-15T22:35:07.776Z,7.90
2018-05-15T22:39:10.504Z,5.70
2018-05-15T22:43:14.011Z,6.10
2018-05-15T22:47:17.591Z,5.97
2018-05-15T22:51:21.145Z,5.40
2018-05-15T22:55:24.681Z,8.30
2018-05-15T22:59:27.407Z,6.00
2018-05-15T23:03:30.957Z,6.77
2018-05-15T23:07:38.290Z,5.73
2018-05-15T23:11:41.069Z,4.93
2018-05-15T23:15:44.712Z,4.90
2018-05-15T23:19:50.830Z,4.67
2018-05-15T23:23:53.568Z,5.97
2018-05-15T23:27:57.155Z,9.07
2018-05-15T23:31:59.869Z,7.53
2018-05-15T23:36:03.473Z,6.53
2018-05-15T23:40:07.079Z,5.40
2018-05-15T23:44:09.789Z,6.30
2018-05-15T23:48:13.407Z,7.30
2018-05-15T23:52:16.896Z,5.53
2018-05-15T23:56:20.778Z,6.00
